sensor_id;sensor_type;location;lat;lon;timestamp;temperature;humidity
6662;DHT22;3367;48.714;8.994;2024-01-30T00:01:32;1.90;99.90
6662;DHT22;3367;48.714;8.994;2024-01-30T00:04:02;1.90;99.90
6662;DHT22;3367;48.714;8.994;2024-01-30T00:06:29;1.90;99.90
6662;DHT22;3367;48.714;8.994;2024-01-30T00:08:57;1.90;99.90
6662;DHT22;3367;48.714;8.994;2024-01-30T00:11:23;1.90;99.90
6662;DHT22;3367;48.714;8.994;2024-01-30T00:13:51;2.00;99.90
6662;DHT22;3367;48.714;8.994;2024-01-30T00:16:21;2.00;99.90
6662;DHT22;3367;48.714;8.994;2024-01-30T00:18:50;2.00;99.90
6662;DHT22;3367;48.714;8.994;2024-01-30T00:21:21;1.90;99.90
6662;DHT22;3367;48.714;8.994;2024-01-30T00:23:50;1.90;99.90
6662;DHT22;3367;48.714;8.994;2024-01-30T00:26:20;1.90;99.90
6662;DHT22;3367;48.714;8.994;2024-01-30T00:28:50;1.80;99.90
6662;DHT22;3367;48.714;8.994;2024-01-30T00:31:17;1.80;99.90
6662;DHT22;3367;48.714;8.994;2024-01-30T00:33:45;1.80;99.90
6662;DHT22;3367;48.714;8.994;2024-01-30T00:36:13;1.80;99.90
6662;DHT22;3367;48.714;8.994;2024-01-30T00:38:40;1.80;99.90
6662;DHT22;3367;48.714;8.994;2024-01-30T00:41:08;1.70;99.90
6662;DHT22;3367;48.714;8.994;2024-01-30T00:43:35;1.70;99.90
6662;DHT22;3367;48.714;8.994;2024-01-30T00:46:01;1.70;99.90
6662;DHT22;3367;48.714;8.994;2024-01-30T00:48:28;1.70;99.90
6662;DHT22;3367;48.714;8.994;2024-01-30T00:50:55;1.60;99.90
6662;DHT22;3367;48.714;8.994;2024-01-30T00:53:26;1.60;99.90
6662;DHT22;3367;48.714;8.994;2024-01-30T00:55:52;1.60;99.90
6662;DHT22;3367;48.714;8.994;2024-01-30T00:58:22;1.60;99.90
6662;DHT22;3367;48.714;8.994;2024-01-30T01:00:49;1.60;99.90
6662;DHT22;3367;48.714;8.994;2024-01-30T01:03:16;1.60;99.90
6662;DHT22;3367;48.714;8.994;2024-01-30T01:05:42;1.50;99.90
6662;DHT22;3367;48.714;8.994;2024-01-30T01:08:09;1.50;99.90
6662;DHT22;3367;48.714;8.994;2024-01-30T01:10:37;1.50;99.90
6662;DHT22;3367;48.714;8.994;2024-01-30T01:13:07;1.50;99.90
6662;DHT22;3367;48.714;8.994;2024-01-30T01:15:33;1.60;1.00
6662;DHT22;3367;48.714;8.994;2024-01-30T01:18:00;1.60;1.00
6662;DHT22;3367;48.714;8.994;2024-01-30T01:20:27;1.70;1.00
6662;DHT22;3367;48.714;8.994;2024-01-30T01:22:54;1.70;1.00
6662;DHT22;3367;48.714;8.994;2024-01-30T01:25:21;1.70;1.00
6662;DHT22;3367;48.714;8.994;2024-01-30T01:27:49;1.70;1.00
6662;DHT22;3367;48.714;8.994;2024-01-30T01:30:17;1.60;99.90
6662;DHT22;3367;48.714;8.994;2024-01-30T01:32:47;1.60;99.90
6662;DHT22;3367;48.714;8.994;2024-01-30T01:35:20;1.60;99.90
6662;DHT22;3367;48.714;8.994;2024-01-30T01:37:48;1.50;99.90
6662;DHT22;3367;48.714;8.994;2024-01-30T01:40:29;1.50;99.90
6662;DHT22;3367;48.714;8.994;2024-01-30T01:42:57;1.40;99.90
6662;DHT22;3367;48.714;8.994;2024-01-30T01:45:27;1.30;99.90
6662;DHT22;3367;48.714;8.994;2024-01-30T01:47:54;1.30;99.90
6662;DHT22;3367;48.714;8.994;2024-01-30T01:50:21;1.30;99.90
6662;DHT22;3367;48.714;8.994;2024-01-30T01:52:50;1.20;99.90
6662;DHT22;3367;48.714;8.994;2024-01-30T01:55:17;1.20;99.90
6662;DHT22;3367;48.714;8.994;2024-01-30T01:57:50;1.10;99.90
6662;DHT22;3367;48.714;8.994;2024-01-30T02:00:18;1.20;99.90
6662;DHT22;3367;48.714;8.994;2024-01-30T02:02:46;1.10;1.00
6662;DHT22;3367;48.714;8.994;2024-01-30T02:05:19;1.10;1.00
6662;DHT22;3367;48.714;8.994;2024-01-30T02:07:45;1.10;1.00
6662;DHT22;3367;48.714;8.994;2024-01-30T02:10:15;1.10;1.00
6662;DHT22;3367;48.714;8.994;2024-01-30T02:12:48;1.10;1.00
6662;DHT22;3367;48.714;8.994;2024-01-30T02:15:14;1.10;1.00
6662;DHT22;3367;48.714;8.994;2024-01-30T02:17:45;1.10;1.00
6662;DHT22;3367;48.714;8.994;2024-01-30T02:20:12;1.00;1.00
6662;DHT22;3367;48.714;8.994;2024-01-30T02:22:40;1.00;1.00
6662;DHT22;3367;48.714;8.994;2024-01-30T02:25:08;1.00;1.00
6662;DHT22;3367;48.714;8.994;2024-01-30T02:27:34;0.90;1.00
6662;DHT22;3367;48.714;8.994;2024-01-30T02:30:01;1.00;1.00
6662;DHT22;3367;48.714;8.994;2024-01-30T02:32:28;0.90;1.00
6662;DHT22;3367;48.714;8.994;2024-01-30T02:34:55;1.00;1.00
6662;DHT22;3367;48.714;8.994;2024-01-30T02:37:21;1.00;1.00
6662;DHT22;3367;48.714;8.994;2024-01-30T02:39:52;0.90;1.00
6662;DHT22;3367;48.714;8.994;2024-01-30T02:42:19;0.90;1.00
6662;DHT22;3367;48.714;8.994;2024-01-30T02:44:52;0.90;1.00
6662;DHT22;3367;48.714;8.994;2024-01-30T02:47:21;0.90;1.00
6662;DHT22;3367;48.714;8.994;2024-01-30T02:49:48;0.90;1.00
6662;DHT22;3367;48.714;8.994;2024-01-30T02:52:15;0.90;1.00
6662;DHT22;3367;48.714;8.994;2024-01-30T02:54:44;0.90;1.00
6662;DHT22;3367;48.714;8.994;2024-01-30T02:57:12;0.90;1.00
6662;DHT22;3367;48.714;8.994;2024-01-30T02:59:42;0.90;1.00
6662;DHT22;3367;48.714;8.994;2024-01-30T03:02:08;0.90;1.00
6662;DHT22;3367;48.714;8.994;2024-01-30T03:04:40;0.80;1.00
6662;DHT22;3367;48.714;8.994;2024-01-30T03:07:10;0.70;1.00
6662;DHT22;3367;48.714;8.994;2024-01-30T03:09:37;0.70;1.00
6662;DHT22;3367;48.714;8.994;2024-01-30T03:12:09;0.70;1.00
6662;DHT22;3367;48.714;8.994;2024-01-30T03:14:38;0.70;1.00
6662;DHT22;3367;48.714;8.994;2024-01-30T03:17:04;0.60;1.00
6662;DHT22;3367;48.714;8.994;2024-01-30T03:19:39;0.60;1.00
6662;DHT22;3367;48.714;8.994;2024-01-30T03:22:13;0.60;1.00
6662;DHT22;3367;48.714;8.994;2024-01-30T03:24:40;0.50;1.00
6662;DHT22;3367;48.714;8.994;2024-01-30T03:27:09;0.50;1.00
6662;DHT22;3367;48.714;8.994;2024-01-30T03:29:40;0.50;1.00
6662;DHT22;3367;48.714;8.994;2024-01-30T03:32:07;0.40;1.00
6662;DHT22;3367;48.714;8.994;2024-01-30T03:34:33;0.40;1.00
6662;DHT22;3367;48.714;8.994;2024-01-30T03:37:00;0.40;1.00
6662;DHT22;3367;48.714;8.994;2024-01-30T03:39:27;0.40;1.00
6662;DHT22;3367;48.714;8.994;2024-01-30T03:41:53;0.40;1.00
6662;DHT22;3367;48.714;8.994;2024-01-30T03:44:20;0.50;1.00
6662;DHT22;3367;48.714;8.994;2024-01-30T03:46:53;0.40;1.00
6662;DHT22;3367;48.714;8.994;2024-01-30T03:49:20;0.40;1.00
6662;DHT22;3367;48.714;8.994;2024-01-30T03:51:47;0.40;1.00
6662;DHT22;3367;48.714;8.994;2024-01-30T03:54:14;0.40;1.00
6662;DHT22;3367;48.714;8.994;2024-01-30T03:56:43;0.40;1.00
6662;DHT22;3367;48.714;8.994;2024-01-30T03:59:10;0.50;97.00
6662;DHT22;3367;48.714;8.994;2024-01-30T04:01:37;0.50;99.90
6662;DHT22;3367;48.714;8.994;2024-01-30T04:04:08;0.50;99.90
6662;DHT22;3367;48.714;8.994;2024-01-30T04:06:34;0.50;99.90
6662;DHT22;3367;48.714;8.994;2024-01-30T04:09:08;0.50;99.90
6662;DHT22;3367;48.714;8.994;2024-01-30T04:11:38;0.40;1.00
6662;DHT22;3367;48.714;8.994;2024-01-30T04:14:04;0.30;1.00
6662;DHT22;3367;48.714;8.994;2024-01-30T04:16:31;0.20;1.00
6662;DHT22;3367;48.714;8.994;2024-01-30T04:18:58;0.20;50.50
6662;DHT22;3367;48.714;8.994;2024-01-30T04:21:26;0.20;91.00
6662;DHT22;3367;48.714;8.994;2024-01-30T04:23:56;0.30;99.90
6662;DHT22;3367;48.714;8.994;2024-01-30T04:26:22;0.30;99.90
6662;DHT22;3367;48.714;8.994;2024-01-30T04:28:52;0.30;99.90
6662;DHT22;3367;48.714;8.994;2024-01-30T04:31:21;0.40;99.90
6662;DHT22;3367;48.714;8.994;2024-01-30T04:33:48;0.40;99.90
6662;DHT22;3367;48.714;8.994;2024-01-30T04:36:14;0.40;99.90
6662;DHT22;3367;48.714;8.994;2024-01-30T04:38:43;0.40;99.90
6662;DHT22;3367;48.714;8.994;2024-01-30T04:41:09;0.40;99.90
6662;DHT22;3367;48.714;8.994;2024-01-30T04:43:39;0.40;99.90
6662;DHT22;3367;48.714;8.994;2024-01-30T04:46:06;0.40;99.90
6662;DHT22;3367;48.714;8.994;2024-01-30T04:48:33;0.30;99.90
6662;DHT22;3367;48.714;8.994;2024-01-30T04:50:59;0.20;99.90
6662;DHT22;3367;48.714;8.994;2024-01-30T04:53:35;0.10;77.40
6662;DHT22;3367;48.714;8.994;2024-01-30T04:56:06;0.00;98.10
6662;DHT22;3367;48.714;8.994;2024-01-30T04:58:33;0.00;99.90
6662;DHT22;3367;48.714;8.994;2024-01-30T05:01:00;0.00;99.90
6662;DHT22;3367;48.714;8.994;2024-01-30T05:03:33;0.00;99.90
6662;DHT22;3367;48.714;8.994;2024-01-30T05:05:59;0.00;99.90
6662;DHT22;3367;48.714;8.994;2024-01-30T05:08:26;0.00;99.90
6662;DHT22;3367;48.714;8.994;2024-01-30T05:10:56;-0.10;99.90
6662;DHT22;3367;48.714;8.994;2024-01-30T05:13:27;-0.10;99.90
6662;DHT22;3367;48.714;8.994;2024-01-30T05:15:53;-0.10;99.90
6662;DHT22;3367;48.714;8.994;2024-01-30T05:18:26;-0.10;99.90
6662;DHT22;3367;48.714;8.994;2024-01-30T05:20:56;-0.10;99.90
6662;DHT22;3367;48.714;8.994;2024-01-30T05:23:23;-0.10;99.90
6662;DHT22;3367;48.714;8.994;2024-01-30T05:25:52;-0.10;99.90
6662;DHT22;3367;48.714;8.994;2024-01-30T05:28:22;0.00;1.00
6662;DHT22;3367;48.714;8.994;2024-01-30T05:30:59;0.00;1.00
6662;DHT22;3367;48.714;8.994;2024-01-30T05:33:28;0.00;1.00
6662;DHT22;3367;48.714;8.994;2024-01-30T05:35:55;0.10;1.00
6662;DHT22;3367;48.714;8.994;2024-01-30T05:38:25;0.10;1.00
6662;DHT22;3367;48.714;8.994;2024-01-30T05:40:51;0.00;1.00
6662;DHT22;3367;48.714;8.994;2024-01-30T05:43:18;0.10;1.00
6662;DHT22;3367;48.714;8.994;2024-01-30T05:45:45;0.10;1.00
6662;DHT22;3367;48.714;8.994;2024-01-30T05:48:13;0.10;1.00
6662;DHT22;3367;48.714;8.994;2024-01-30T05:50:39;0.00;1.00
6662;DHT22;3367;48.714;8.994;2024-01-30T05:53:06;0.00;99.90
6662;DHT22;3367;48.714;8.994;2024-01-30T05:55:33;0.00;99.90
6662;DHT22;3367;48.714;8.994;2024-01-30T05:57:59;0.00;99.90
6662;DHT22;3367;48.714;8.994;2024-01-30T06:00:27;0.00;99.90
6662;DHT22;3367;48.714;8.994;2024-01-30T06:02:53;0.00;99.90
6662;DHT22;3367;48.714;8.994;2024-01-30T06:05:21;0.00;99.90
6662;DHT22;3367;48.714;8.994;2024-01-30T06:07:48;0.00;99.90
6662;DHT22;3367;48.714;8.994;2024-01-30T06:10:15;0.00;99.90
6662;DHT22;3367;48.714;8.994;2024-01-30T06:12:45;0.00;99.90
6662;DHT22;3367;48.714;8.994;2024-01-30T06:15:13;0.00;99.90
6662;DHT22;3367;48.714;8.994;2024-01-30T06:17:40;0.00;99.90
6662;DHT22;3367;48.714;8.994;2024-01-30T06:20:07;0.00;99.90
6662;DHT22;3367;48.714;8.994;2024-01-30T06:22:37;0.00;99.90
6662;DHT22;3367;48.714;8.994;2024-01-30T06:25:04;0.00;99.90
6662;DHT22;3367;48.714;8.994;2024-01-30T06:27:31;0.00;99.90
6662;DHT22;3367;48.714;8.994;2024-01-30T06:29:58;-0.10;99.90
6662;DHT22;3367;48.714;8.994;2024-01-30T06:32:25;-0.10;99.90
6662;DHT22;3367;48.714;8.994;2024-01-30T06:34:52;-0.10;99.90
6662;DHT22;3367;48.714;8.994;2024-01-30T06:37:19;-0.10;94.60
6662;DHT22;3367;48.714;8.994;2024-01-30T06:39:48;-0.10;99.90
6662;DHT22;3367;48.714;8.994;2024-01-30T06:42:15;-0.10;99.90
6662;DHT22;3367;48.714;8.994;2024-01-30T06:44:41;-0.10;99.80
6662;DHT22;3367;48.714;8.994;2024-01-30T06:47:08;-0.10;31.20
6662;DHT22;3367;48.714;8.994;2024-01-30T06:49:35;-0.10;30.60
6662;DHT22;3367;48.714;8.994;2024-01-30T06:52:04;-0.10;64.10
6662;DHT22;3367;48.714;8.994;2024-01-30T06:54:31;-0.10;60.50
6662;DHT22;3367;48.714;8.994;2024-01-30T06:56:59;-0.10;10.40
6662;DHT22;3367;48.714;8.994;2024-01-30T06:59:26;-0.10;17.70
6662;DHT22;3367;48.714;8.994;2024-01-30T07:01:53;-0.10;20.30
6662;DHT22;3367;48.714;8.994;2024-01-30T07:04:19;0.00;49.00
6662;DHT22;3367;48.714;8.994;2024-01-30T07:06:46;0.00;1.00
6662;DHT22;3367;48.714;8.994;2024-01-30T07:09:13;0.00;1.00
6662;DHT22;3367;48.714;8.994;2024-01-30T07:11:40;0.00;1.00
6662;DHT22;3367;48.714;8.994;2024-01-30T07:14:08;0.00;1.00
6662;DHT22;3367;48.714;8.994;2024-01-30T07:16:35;0.00;1.00
6662;DHT22;3367;48.714;8.994;2024-01-30T07:19:02;0.00;1.00
6662;DHT22;3367;48.714;8.994;2024-01-30T07:21:29;0.00;1.00
6662;DHT22;3367;48.714;8.994;2024-01-30T07:23:55;0.10;1.00
6662;DHT22;3367;48.714;8.994;2024-01-30T07:26:22;0.10;1.00
6662;DHT22;3367;48.714;8.994;2024-01-30T07:28:49;0.20;1.00
6662;DHT22;3367;48.714;8.994;2024-01-30T07:31:18;0.30;1.00
6662;DHT22;3367;48.714;8.994;2024-01-30T07:33:46;0.30;1.00
6662;DHT22;3367;48.714;8.994;2024-01-30T07:36:12;0.40;1.00
6662;DHT22;3367;48.714;8.994;2024-01-30T07:38:39;0.50;1.00
6662;DHT22;3367;48.714;8.994;2024-01-30T07:41:06;0.60;67.20
6662;DHT22;3367;48.714;8.994;2024-01-30T07:43:33;0.70;61.30
6662;DHT22;3367;48.714;8.994;2024-01-30T07:46:01;0.80;1.00
6662;DHT22;3367;48.714;8.994;2024-01-30T07:48:29;0.90;1.00
6662;DHT22;3367;48.714;8.994;2024-01-30T07:50:56;0.90;1.00
6662;DHT22;3367;48.714;8.994;2024-01-30T07:53:23;1.10;1.00
6662;DHT22;3367;48.714;8.994;2024-01-30T07:55:50;1.20;1.00
6662;DHT22;3367;48.714;8.994;2024-01-30T07:58:17;1.30;1.00
6662;DHT22;3367;48.714;8.994;2024-01-30T08:00:44;1.40;1.00
6662;DHT22;3367;48.714;8.994;2024-01-30T08:03:11;1.50;1.00
6662;DHT22;3367;48.714;8.994;2024-01-30T08:05:39;1.60;1.00
6662;DHT22;3367;48.714;8.994;2024-01-30T08:08:06;1.70;1.00
6662;DHT22;3367;48.714;8.994;2024-01-30T08:10:33;1.80;1.00
6662;DHT22;3367;48.714;8.994;2024-01-30T08:12:59;2.00;1.00
6662;DHT22;3367;48.714;8.994;2024-01-30T08:15:26;2.10;1.00
6662;DHT22;3367;48.714;8.994;2024-01-30T08:17:53;2.30;1.00
6662;DHT22;3367;48.714;8.994;2024-01-30T08:20:23;2.50;99.90
6662;DHT22;3367;48.714;8.994;2024-01-30T08:22:51;2.60;99.90
6662;DHT22;3367;48.714;8.994;2024-01-30T08:25:18;2.70;7.00
6662;DHT22;3367;48.714;8.994;2024-01-30T08:27:44;2.80;1.00
6662;DHT22;3367;48.714;8.994;2024-01-30T08:30:12;3.00;1.00
6662;DHT22;3367;48.714;8.994;2024-01-30T08:32:38;3.10;1.00
6662;DHT22;3367;48.714;8.994;2024-01-30T08:35:05;3.10;1.00
6662;DHT22;3367;48.714;8.994;2024-01-30T08:37:32;3.20;1.00
6662;DHT22;3367;48.714;8.994;2024-01-30T08:40:00;3.20;1.00
6662;DHT22;3367;48.714;8.994;2024-01-30T08:42:28;3.30;1.00
6662;DHT22;3367;48.714;8.994;2024-01-30T08:44:54;3.30;1.00
6662;DHT22;3367;48.714;8.994;2024-01-30T08:47:21;3.40;1.00
6662;DHT22;3367;48.714;8.994;2024-01-30T08:49:48;3.40;1.00
6662;DHT22;3367;48.714;8.994;2024-01-30T08:52:15;3.50;1.00
6662;DHT22;3367;48.714;8.994;2024-01-30T08:54:41;3.50;1.00
6662;DHT22;3367;48.714;8.994;2024-01-30T08:57:09;3.60;1.00
6662;DHT22;3367;48.714;8.994;2024-01-30T08:59:36;3.70;1.00
6662;DHT22;3367;48.714;8.994;2024-01-30T09:02:03;3.90;1.00
6662;DHT22;3367;48.714;8.994;2024-01-30T09:04:30;4.10;1.00
6662;DHT22;3367;48.714;8.994;2024-01-30T09:06:57;4.20;99.90
6662;DHT22;3367;48.714;8.994;2024-01-30T09:09:24;4.40;99.90
6662;DHT22;3367;48.714;8.994;2024-01-30T09:11:50;4.50;99.90
6662;DHT22;3367;48.714;8.994;2024-01-30T09:14:18;4.70;99.90
6662;DHT22;3367;48.714;8.994;2024-01-30T09:16:45;4.90;33.60
6662;DHT22;3367;48.714;8.994;2024-01-30T09:19:13;5.10;1.00
6662;DHT22;3367;48.714;8.994;2024-01-30T09:21:40;5.20;1.00
6662;DHT22;3367;48.714;8.994;2024-01-30T09:24:07;5.40;1.00
6662;DHT22;3367;48.714;8.994;2024-01-30T09:26:34;5.60;1.00
6662;DHT22;3367;48.714;8.994;2024-01-30T09:29:01;5.70;1.00
6662;DHT22;3367;48.714;8.994;2024-01-30T09:31:29;5.90;1.00
6662;DHT22;3367;48.714;8.994;2024-01-30T09:33:56;6.10;99.90
6662;DHT22;3367;48.714;8.994;2024-01-30T09:36:22;6.20;99.90
6662;DHT22;3367;48.714;8.994;2024-01-30T09:38:49;6.40;99.90
6662;DHT22;3367;48.714;8.994;2024-01-30T09:41:17;6.50;99.90
6662;DHT22;3367;48.714;8.994;2024-01-30T09:43:48;6.60;1.00
6662;DHT22;3367;48.714;8.994;2024-01-30T09:46:16;6.70;1.00
6662;DHT22;3367;48.714;8.994;2024-01-30T09:48:46;6.80;1.00
6662;DHT22;3367;48.714;8.994;2024-01-30T09:51:14;6.90;1.00
6662;DHT22;3367;48.714;8.994;2024-01-30T09:53:42;6.90;1.00
6662;DHT22;3367;48.714;8.994;2024-01-30T09:56:09;7.00;1.00
6662;DHT22;3367;48.714;8.994;2024-01-30T09:58:36;6.90;1.00
6662;DHT22;3367;48.714;8.994;2024-01-30T10:01:05;7.00;1.00
6662;DHT22;3367;48.714;8.994;2024-01-30T10:03:32;7.10;1.00
6662;DHT22;3367;48.714;8.994;2024-01-30T10:06:01;7.20;1.00
6662;DHT22;3367;48.714;8.994;2024-01-30T10:08:27;7.30;1.00
6662;DHT22;3367;48.714;8.994;2024-01-30T10:10:55;7.40;1.00
6662;DHT22;3367;48.714;8.994;2024-01-30T10:13:22;7.50;1.00
6662;DHT22;3367;48.714;8.994;2024-01-30T10:15:48;7.60;1.00
6662;DHT22;3367;48.714;8.994;2024-01-30T10:18:16;7.70;1.00
6662;DHT22;3367;48.714;8.994;2024-01-30T10:20:42;7.80;1.00
6662;DHT22;3367;48.714;8.994;2024-01-30T10:23:11;7.90;1.00
6662;DHT22;3367;48.714;8.994;2024-01-30T10:25:38;8.00;1.00
6662;DHT22;3367;48.714;8.994;2024-01-30T10:28:05;8.10;1.00
6662;DHT22;3367;48.714;8.994;2024-01-30T10:30:32;8.20;1.00
6662;DHT22;3367;48.714;8.994;2024-01-30T10:32:58;8.40;1.00
6662;DHT22;3367;48.714;8.994;2024-01-30T10:35:25;8.40;1.00
6662;DHT22;3367;48.714;8.994;2024-01-30T10:37:52;8.50;1.00
6662;DHT22;3367;48.714;8.994;2024-01-30T10:40:27;8.60;1.00
6662;DHT22;3367;48.714;8.994;2024-01-30T10:42:55;8.70;1.00
6662;DHT22;3367;48.714;8.994;2024-01-30T10:45:23;8.80;1.00
6662;DHT22;3367;48.714;8.994;2024-01-30T10:47:54;8.90;1.00
6662;DHT22;3367;48.714;8.994;2024-01-30T10:50:24;9.00;1.00
6662;DHT22;3367;48.714;8.994;2024-01-30T10:52:52;9.10;1.00
6662;DHT22;3367;48.714;8.994;2024-01-30T10:55:22;9.20;1.00
6662;DHT22;3367;48.714;8.994;2024-01-30T10:57:50;9.30;1.00
6662;DHT22;3367;48.714;8.994;2024-01-30T11:00:18;9.40;1.00
6662;DHT22;3367;48.714;8.994;2024-01-30T11:02:48;9.50;1.00
6662;DHT22;3367;48.714;8.994;2024-01-30T11:05:15;9.50;1.00
6662;DHT22;3367;48.714;8.994;2024-01-30T11:07:49;9.70;1.00
6662;DHT22;3367;48.714;8.994;2024-01-30T11:10:16;9.80;1.00
6662;DHT22;3367;48.714;8.994;2024-01-30T11:12:45;9.90;1.00
6662;DHT22;3367;48.714;8.994;2024-01-30T11:15:15;10.00;1.00
6662;DHT22;3367;48.714;8.994;2024-01-30T11:17:50;10.10;1.00
6662;DHT22;3367;48.714;8.994;2024-01-30T11:20:19;10.10;1.00
6662;DHT22;3367;48.714;8.994;2024-01-30T11:22:47;10.20;1.00
6662;DHT22;3367;48.714;8.994;2024-01-30T11:25:14;10.30;1.00
6662;DHT22;3367;48.714;8.994;2024-01-30T11:27:42;10.40;1.00
6662;DHT22;3367;48.714;8.994;2024-01-30T11:30:09;10.30;1.00
6662;DHT22;3367;48.714;8.994;2024-01-30T11:32:37;10.40;1.00
6662;DHT22;3367;48.714;8.994;2024-01-30T11:35:04;10.40;1.00
6662;DHT22;3367;48.714;8.994;2024-01-30T11:37:37;10.40;1.00
6662;DHT22;3367;48.714;8.994;2024-01-30T11:40:05;10.60;1.00
6662;DHT22;3367;48.714;8.994;2024-01-30T11:42:32;10.60;1.00
6662;DHT22;3367;48.714;8.994;2024-01-30T11:45:00;10.60;1.00
6662;DHT22;3367;48.714;8.994;2024-01-30T11:47:27;10.70;1.00
6662;DHT22;3367;48.714;8.994;2024-01-30T11:49:56;10.70;1.00
6662;DHT22;3367;48.714;8.994;2024-01-30T11:52:23;10.70;1.00
6662;DHT22;3367;48.714;8.994;2024-01-30T11:54:49;10.80;1.00
6662;DHT22;3367;48.714;8.994;2024-01-30T11:57:16;10.80;1.00
6662;DHT22;3367;48.714;8.994;2024-01-30T11:59:43;10.80;1.00
6662;DHT22;3367;48.714;8.994;2024-01-30T12:02:15;10.90;1.00
6662;DHT22;3367;48.714;8.994;2024-01-30T12:04:42;10.90;1.00
6662;DHT22;3367;48.714;8.994;2024-01-30T12:07:10;11.00;1.00
6662;DHT22;3367;48.714;8.994;2024-01-30T12:09:37;11.00;1.00
6662;DHT22;3367;48.714;8.994;2024-01-30T12:12:06;11.20;1.00
6662;DHT22;3367;48.714;8.994;2024-01-30T12:14:37;11.30;1.00
6662;DHT22;3367;48.714;8.994;2024-01-30T12:17:04;11.30;1.00
6662;DHT22;3367;48.714;8.994;2024-01-30T12:19:33;11.30;1.00
6662;DHT22;3367;48.714;8.994;2024-01-30T12:21:59;11.40;1.00
6662;DHT22;3367;48.714;8.994;2024-01-30T12:24:28;11.50;1.00
6662;DHT22;3367;48.714;8.994;2024-01-30T12:26:57;11.60;1.00
6662;DHT22;3367;48.714;8.994;2024-01-30T12:29:23;11.60;1.00
6662;DHT22;3367;48.714;8.994;2024-01-30T12:31:53;11.70;1.00
6662;DHT22;3367;48.714;8.994;2024-01-30T12:34:19;11.80;1.00
6662;DHT22;3367;48.714;8.994;2024-01-30T12:36:47;11.80;1.00
6662;DHT22;3367;48.714;8.994;2024-01-30T12:39:14;11.90;1.00
6662;DHT22;3367;48.714;8.994;2024-01-30T12:41:42;11.90;1.00
6662;DHT22;3367;48.714;8.994;2024-01-30T12:44:09;11.90;1.00
6662;DHT22;3367;48.714;8.994;2024-01-30T12:46:36;11.90;1.00
6662;DHT22;3367;48.714;8.994;2024-01-30T12:49:03;11.90;1.00
6662;DHT22;3367;48.714;8.994;2024-01-30T12:51:29;11.90;1.00
6662;DHT22;3367;48.714;8.994;2024-01-30T12:53:56;12.00;1.00
6662;DHT22;3367;48.714;8.994;2024-01-30T12:56:23;12.10;1.00
6662;DHT22;3367;48.714;8.994;2024-01-30T12:58:51;12.20;1.00
6662;DHT22;3367;48.714;8.994;2024-01-30T13:01:18;12.20;1.00
6662;DHT22;3367;48.714;8.994;2024-01-30T13:03:45;12.40;1.00
6662;DHT22;3367;48.714;8.994;2024-01-30T13:06:12;12.40;1.00
6662;DHT22;3367;48.714;8.994;2024-01-30T13:08:38;12.50;1.00
6662;DHT22;3367;48.714;8.994;2024-01-30T13:11:05;12.40;1.00
6662;DHT22;3367;48.714;8.994;2024-01-30T13:13:32;12.40;1.00
6662;DHT22;3367;48.714;8.994;2024-01-30T13:16:00;12.70;1.00
6662;DHT22;3367;48.714;8.994;2024-01-30T13:18:27;12.50;1.00
6662;DHT22;3367;48.714;8.994;2024-01-30T13:20:54;12.60;1.00
6662;DHT22;3367;48.714;8.994;2024-01-30T13:23:20;12.60;1.00
6662;DHT22;3367;48.714;8.994;2024-01-30T13:25:47;12.50;1.00
6662;DHT22;3367;48.714;8.994;2024-01-30T13:28:14;12.60;1.00
6662;DHT22;3367;48.714;8.994;2024-01-30T13:30:41;12.60;1.00
6662;DHT22;3367;48.714;8.994;2024-01-30T13:33:09;12.60;1.00
6662;DHT22;3367;48.714;8.994;2024-01-30T13:35:35;12.80;1.00
6662;DHT22;3367;48.714;8.994;2024-01-30T13:38:02;12.80;1.00
6662;DHT22;3367;48.714;8.994;2024-01-30T13:40:29;12.70;1.00
6662;DHT22;3367;48.714;8.994;2024-01-30T13:42:56;12.70;1.00
6662;DHT22;3367;48.714;8.994;2024-01-30T13:45:22;12.60;1.00
6662;DHT22;3367;48.714;8.994;2024-01-30T13:47:49;12.60;1.00
6662;DHT22;3367;48.714;8.994;2024-01-30T13:50:17;12.60;1.00
6662;DHT22;3367;48.714;8.994;2024-01-30T13:52:44;12.60;1.00
6662;DHT22;3367;48.714;8.994;2024-01-30T13:55:11;12.60;1.00
6662;DHT22;3367;48.714;8.994;2024-01-30T13:57:37;12.70;1.00
6662;DHT22;3367;48.714;8.994;2024-01-30T14:00:05;12.70;1.00
6662;DHT22;3367;48.714;8.994;2024-01-30T14:02:32;12.70;1.00
6662;DHT22;3367;48.714;8.994;2024-01-30T14:04:59;12.70;1.00
6662;DHT22;3367;48.714;8.994;2024-01-30T14:07:27;12.70;1.00
6662;DHT22;3367;48.714;8.994;2024-01-30T14:09:54;12.80;1.00
6662;DHT22;3367;48.714;8.994;2024-01-30T14:12:21;12.70;1.00
6662;DHT22;3367;48.714;8.994;2024-01-30T14:14:47;12.70;1.00
6662;DHT22;3367;48.714;8.994;2024-01-30T14:17:14;12.70;1.00
6662;DHT22;3367;48.714;8.994;2024-01-30T14:19:41;12.70;1.00
6662;DHT22;3367;48.714;8.994;2024-01-30T14:22:08;12.80;1.00
6662;DHT22;3367;48.714;8.994;2024-01-30T14:24:36;12.60;1.00
6662;DHT22;3367;48.714;8.994;2024-01-30T14:27:04;12.60;1.00
6662;DHT22;3367;48.714;8.994;2024-01-30T14:29:30;12.60;1.00
6662;DHT22;3367;48.714;8.994;2024-01-30T14:31:57;12.60;1.00
6662;DHT22;3367;48.714;8.994;2024-01-30T14:34:24;12.50;1.00
6662;DHT22;3367;48.714;8.994;2024-01-30T14:36:51;12.50;1.00
6662;DHT22;3367;48.714;8.994;2024-01-30T14:39:17;12.40;1.00
6662;DHT22;3367;48.714;8.994;2024-01-30T14:41:46;12.40;1.00
6662;DHT22;3367;48.714;8.994;2024-01-30T14:44:12;12.40;1.00
6662;DHT22;3367;48.714;8.994;2024-01-30T14:46:40;12.40;1.00
6662;DHT22;3367;48.714;8.994;2024-01-30T14:49:07;12.20;1.00
6662;DHT22;3367;48.714;8.994;2024-01-30T14:51:35;12.20;1.00
6662;DHT22;3367;48.714;8.994;2024-01-30T14:54:02;12.10;1.00
6662;DHT22;3367;48.714;8.994;2024-01-30T14:56:29;12.00;1.00
6662;DHT22;3367;48.714;8.994;2024-01-30T14:58:57;11.90;1.00
6662;DHT22;3367;48.714;8.994;2024-01-30T15:01:23;11.80;1.00
6662;DHT22;3367;48.714;8.994;2024-01-30T15:03:50;11.70;1.00
6662;DHT22;3367;48.714;8.994;2024-01-30T15:06:17;11.60;1.00
6662;DHT22;3367;48.714;8.994;2024-01-30T15:08:44;11.50;1.00
6662;DHT22;3367;48.714;8.994;2024-01-30T15:11:11;11.50;1.00
6662;DHT22;3367;48.714;8.994;2024-01-30T15:13:38;11.40;1.00
6662;DHT22;3367;48.714;8.994;2024-01-30T15:16:06;11.30;1.00
6662;DHT22;3367;48.714;8.994;2024-01-30T15:18:33;11.20;1.00
6662;DHT22;3367;48.714;8.994;2024-01-30T15:21:00;11.10;1.00
6662;DHT22;3367;48.714;8.994;2024-01-30T15:23:27;11.10;1.00
6662;DHT22;3367;48.714;8.994;2024-01-30T15:25:54;11.00;1.00
6662;DHT22;3367;48.714;8.994;2024-01-30T15:28:34;10.90;1.00
6662;DHT22;3367;48.714;8.994;2024-01-30T15:31:01;10.70;1.00
6662;DHT22;3367;48.714;8.994;2024-01-30T15:33:29;10.70;1.00
6662;DHT22;3367;48.714;8.994;2024-01-30T15:35:58;10.60;1.00
6662;DHT22;3367;48.714;8.994;2024-01-30T15:38:25;10.50;1.00
6662;DHT22;3367;48.714;8.994;2024-01-30T15:40:53;10.40;1.00
6662;DHT22;3367;48.714;8.994;2024-01-30T15:43:19;10.40;1.00
6662;DHT22;3367;48.714;8.994;2024-01-30T15:45:47;10.30;1.00
6662;DHT22;3367;48.714;8.994;2024-01-30T15:48:13;10.20;1.00
6662;DHT22;3367;48.714;8.994;2024-01-30T15:50:42;10.10;1.00
6662;DHT22;3367;48.714;8.994;2024-01-30T15:53:08;10.00;1.00
6662;DHT22;3367;48.714;8.994;2024-01-30T15:55:35;9.80;1.00
6662;DHT22;3367;48.714;8.994;2024-01-30T15:58:02;9.70;1.00
6662;DHT22;3367;48.714;8.994;2024-01-30T16:00:29;9.60;1.00
6662;DHT22;3367;48.714;8.994;2024-01-30T16:02:56;9.50;1.00
6662;DHT22;3367;48.714;8.994;2024-01-30T16:05:23;9.40;1.00
6662;DHT22;3367;48.714;8.994;2024-01-30T16:07:51;9.30;1.00
6662;DHT22;3367;48.714;8.994;2024-01-30T16:10:18;9.30;1.00
6662;DHT22;3367;48.714;8.994;2024-01-30T16:12:45;9.20;1.00
6662;DHT22;3367;48.714;8.994;2024-01-30T16:15:12;9.10;1.00
6662;DHT22;3367;48.714;8.994;2024-01-30T16:17:39;9.20;1.00
6662;DHT22;3367;48.714;8.994;2024-01-30T16:20:07;9.10;1.00
6662;DHT22;3367;48.714;8.994;2024-01-30T16:22:34;9.10;1.00
6662;DHT22;3367;48.714;8.994;2024-01-30T16:25:02;9.00;1.00
6662;DHT22;3367;48.714;8.994;2024-01-30T16:27:30;9.00;1.00